sensor_id;sensor_type;location;lat;lon;timestamp;P1;durP1;ratioP1;P2;durP2;ratioP2
30307;SDS011;17114;52.314;8.910;2022-09-12T00:01:53;16.10;;;11.38;;
30307;SDS011;17114;52.314;8.910;2022-09-12T00:04:20;13.98;;;10.32;;
30307;SDS011;17114;52.314;8.910;2022-09-12T00:06:47;16.98;;;12.02;;
30307;SDS011;17114;52.314;8.910;2022-09-12T00:09:14;18.20;;;12.27;;
30307;SDS011;17114;52.314;8.910;2022-09-12T00:11:42;18.63;;;12.32;;
30307;SDS011;17114;52.314;8.910;2022-09-12T00:14:12;23.08;;;13.50;;
30307;SDS011;17114;52.314;8.910;2022-09-12T00:16:41;18.48;;;12.90;;
30307;SDS011;17114;52.314;8.910;2022-09-12T00:19:09;20.38;;;12.80;;
30307;SDS011;17114;52.314;8.910;2022-09-12T00:21:37;26.60;;;14.93;;
30307;SDS011;17114;52.314;8.910;2022-09-12T00:24:05;25.63;;;15.75;;
30307;SDS011;17114;52.314;8.910;2022-09-12T00:26:32;22.30;;;15.23;;
30307;SDS011;17114;52.314;8.910;2022-09-12T00:28:59;21.98;;;14.25;;
30307;SDS011;17114;52.314;8.910;2022-09-12T00:31:26;21.23;;;13.40;;
30307;SDS011;17114;52.314;8.910;2022-09-12T00:33:54;21.38;;;14.00;;
30307;SDS011;17114;52.314;8.910;2022-09-12T00:36:23;22.00;;;14.73;;
30307;SDS011;17114;52.314;8.910;2022-09-12T00:38:51;23.67;;;16.10;;
30307;SDS011;17114;52.314;8.910;2022-09-12T00:41:30;21.80;;;15.05;;
30307;SDS011;17114;52.314;8.910;2022-09-12T00:43:59;25.90;;;17.17;;
30307;SDS011;17114;52.314;8.910;2022-09-12T00:49:13;23.10;;;14.93;;
30307;SDS011;17114;52.314;8.910;2022-09-12T00:51:45;27.80;;;17.67;;
30307;SDS011;17114;52.314;8.910;2022-09-12T00:54:35;23.92;;;15.13;;
30307;SDS011;17114;52.314;8.910;2022-09-12T00:57:07;23.50;;;15.68;;
30307;SDS011;17114;52.314;8.910;2022-09-12T00:59:44;23.08;;;16.30;;
30307;SDS011;17114;52.314;8.910;2022-09-12T01:02:17;23.35;;;15.25;;
30307;SDS011;17114;52.314;8.910;2022-09-12T01:04:44;21.60;;;14.35;;
30307;SDS011;17114;52.314;8.910;2022-09-12T01:07:13;21.52;;;14.10;;
30307;SDS011;17114;52.314;8.910;2022-09-12T01:09:41;22.42;;;14.10;;
30307;SDS011;17114;52.314;8.910;2022-09-12T01:12:11;23.70;;;15.38;;
30307;SDS011;17114;52.314;8.910;2022-09-12T01:14:40;26.15;;;17.73;;
30307;SDS011;17114;52.314;8.910;2022-09-12T01:17:10;36.95;;;19.63;;
30307;SDS011;17114;52.314;8.910;2022-09-12T01:25:27;33.33;;;19.95;;
30307;SDS011;17114;52.314;8.910;2022-09-12T01:28:02;30.23;;;18.63;;
30307;SDS011;17114;52.314;8.910;2022-09-12T01:31:02;22.80;;;14.02;;
30307;SDS011;17114;52.314;8.910;2022-09-12T01:41:16;31.55;;;19.05;;
30307;SDS011;17114;52.314;8.910;2022-09-12T01:43:59;25.83;;;16.52;;
30307;SDS011;17114;52.314;8.910;2022-09-12T01:49:11;34.85;;;18.58;;
30307;SDS011;17114;52.314;8.910;2022-09-12T01:54:43;26.98;;;16.42;;
30307;SDS011;17114;52.314;8.910;2022-09-12T02:00:25;28.70;;;17.23;;
30307;SDS011;17114;52.314;8.910;2022-09-12T02:02:54;27.83;;;16.80;;
30307;SDS011;17114;52.314;8.910;2022-09-12T02:05:30;27.55;;;16.17;;
30307;SDS011;17114;52.314;8.910;2022-09-12T02:08:05;23.30;;;15.27;;
30307;SDS011;17114;52.314;8.910;2022-09-12T02:10:48;25.05;;;16.20;;
30307;SDS011;17114;52.314;8.910;2022-09-12T02:15:54;26.92;;;16.83;;
30307;SDS011;17114;52.314;8.910;2022-09-12T02:18:26;25.27;;;15.27;;
30307;SDS011;17114;52.314;8.910;2022-09-12T02:20:57;19.98;;;13.07;;
30307;SDS011;17114;52.314;8.910;2022-09-12T02:23:28;21.20;;;13.07;;
30307;SDS011;17114;52.314;8.910;2022-09-12T02:26:00;24.17;;;15.93;;
30307;SDS011;17114;52.314;8.910;2022-09-12T02:28:33;25.00;;;15.23;;
30307;SDS011;17114;52.314;8.910;2022-09-12T02:33:58;23.60;;;14.88;;
30307;SDS011;17114;52.314;8.910;2022-09-12T02:36:35;27.63;;;14.98;;
30307;SDS011;17114;52.314;8.910;2022-09-12T02:39:11;29.63;;;17.38;;
30307;SDS011;17114;52.314;8.910;2022-09-12T02:41:38;25.58;;;14.18;;
30307;SDS011;17114;52.314;8.910;2022-09-12T02:44:05;24.25;;;14.70;;
30307;SDS011;17114;52.314;8.910;2022-09-12T02:46:34;22.80;;;14.35;;
30307;SDS011;17114;52.314;8.910;2022-09-12T02:49:06;22.10;;;14.60;;
30307;SDS011;17114;52.314;8.910;2022-09-12T02:51:34;27.88;;;16.92;;
30307;SDS011;17114;52.314;8.910;2022-09-12T02:54:02;27.73;;;16.13;;
30307;SDS011;17114;52.314;8.910;2022-09-12T02:56:31;28.33;;;16.25;;
30307;SDS011;17114;52.314;8.910;2022-09-12T02:59:01;29.15;;;18.33;;
30307;SDS011;17114;52.314;8.910;2022-09-12T03:07:33;25.23;;;16.10;;
30307;SDS011;17114;52.314;8.910;2022-09-12T03:10:22;29.70;;;19.02;;
30307;SDS011;17114;52.314;8.910;2022-09-12T03:13:20;30.67;;;17.50;;
30307;SDS011;17114;52.314;8.910;2022-09-12T03:16:02;28.27;;;17.45;;
30307;SDS011;17114;52.314;8.910;2022-09-12T03:27:15;29.95;;;17.77;;
30307;SDS011;17114;52.314;8.910;2022-09-12T03:29:46;26.60;;;15.70;;
30307;SDS011;17114;52.314;8.910;2022-09-12T03:32:14;27.30;;;15.60;;
30307;SDS011;17114;52.314;8.910;2022-09-12T03:34:41;26.88;;;15.73;;
30307;SDS011;17114;52.314;8.910;2022-09-12T03:37:07;25.70;;;17.08;;
30307;SDS011;17114;52.314;8.910;2022-09-12T03:39:34;28.67;;;16.50;;
30307;SDS011;17114;52.314;8.910;2022-09-12T03:42:01;26.88;;;15.38;;
30307;SDS011;17114;52.314;8.910;2022-09-12T03:44:28;26.58;;;16.45;;
30307;SDS011;17114;52.314;8.910;2022-09-12T03:46:54;26.73;;;15.50;;
30307;SDS011;17114;52.314;8.910;2022-09-12T03:49:21;23.55;;;13.88;;
30307;SDS011;17114;52.314;8.910;2022-09-12T03:51:48;24.02;;;15.57;;
30307;SDS011;17114;52.314;8.910;2022-09-12T03:54:14;22.35;;;14.15;;
30307;SDS011;17114;52.314;8.910;2022-09-12T03:56:41;24.85;;;15.30;;
30307;SDS011;17114;52.314;8.910;2022-09-12T03:59:08;24.23;;;15.55;;
30307;SDS011;17114;52.314;8.910;2022-09-12T04:01:35;28.20;;;16.02;;
30307;SDS011;17114;52.314;8.910;2022-09-12T04:04:03;26.42;;;16.10;;
30307;SDS011;17114;52.314;8.910;2022-09-12T04:06:30;25.50;;;15.43;;
30307;SDS011;17114;52.314;8.910;2022-09-12T04:08:57;26.52;;;16.50;;
30307;SDS011;17114;52.314;8.910;2022-09-12T04:11:24;30.83;;;16.63;;
30307;SDS011;17114;52.314;8.910;2022-09-12T04:13:50;30.65;;;18.00;;
30307;SDS011;17114;52.314;8.910;2022-09-12T04:16:17;31.65;;;18.58;;
30307;SDS011;17114;52.314;8.910;2022-09-12T04:18:47;35.00;;;19.20;;
30307;SDS011;17114;52.314;8.910;2022-09-12T04:21:15;29.95;;;17.75;;
30307;SDS011;17114;52.314;8.910;2022-09-12T04:23:43;30.65;;;19.10;;
30307;SDS011;17114;52.314;8.910;2022-09-12T04:26:11;30.33;;;17.40;;
30307;SDS011;17114;52.314;8.910;2022-09-12T04:28:38;28.17;;;16.83;;
30307;SDS011;17114;52.314;8.910;2022-09-12T04:31:16;31.80;;;18.08;;
30307;SDS011;17114;52.314;8.910;2022-09-12T04:33:45;30.38;;;17.48;;
30307;SDS011;17114;52.314;8.910;2022-09-12T04:36:14;32.05;;;18.98;;
30307;SDS011;17114;52.314;8.910;2022-09-12T04:38:43;31.00;;;18.15;;
30307;SDS011;17114;52.314;8.910;2022-09-12T04:41:11;30.38;;;18.30;;
30307;SDS011;17114;52.314;8.910;2022-09-12T04:43:43;31.75;;;18.17;;
30307;SDS011;17114;52.314;8.910;2022-09-12T04:46:14;35.70;;;20.80;;
30307;SDS011;17114;52.314;8.910;2022-09-12T04:48:44;26.30;;;17.17;;
30307;SDS011;17114;52.314;8.910;2022-09-12T04:51:14;37.08;;;19.02;;
30307;SDS011;17114;52.314;8.910;2022-09-12T04:53:48;30.60;;;17.90;;
30307;SDS011;17114;52.314;8.910;2022-09-12T04:56:20;35.63;;;20.38;;
30307;SDS011;17114;52.314;8.910;2022-09-12T04:58:47;33.70;;;18.92;;
30307;SDS011;17114;52.314;8.910;2022-09-12T05:01:16;29.98;;;18.20;;
30307;SDS011;17114;52.314;8.910;2022-09-12T05:03:45;38.50;;;21.45;;
30307;SDS011;17114;52.314;8.910;2022-09-12T05:06:16;37.17;;;21.38;;
30307;SDS011;17114;52.314;8.910;2022-09-12T05:08:45;34.40;;;20.33;;
30307;SDS011;17114;52.314;8.910;2022-09-12T05:11:13;35.55;;;20.45;;
30307;SDS011;17114;52.314;8.910;2022-09-12T05:13:41;38.28;;;22.20;;
30307;SDS011;17114;52.314;8.910;2022-09-12T05:16:09;38.20;;;21.10;;
30307;SDS011;17114;52.314;8.910;2022-09-12T05:18:38;37.75;;;23.27;;
30307;SDS011;17114;52.314;8.910;2022-09-12T05:21:05;34.72;;;19.52;;
30307;SDS011;17114;52.314;8.910;2022-09-12T05:23:34;39.55;;;21.48;;
30307;SDS011;17114;52.314;8.910;2022-09-12T05:26:02;34.00;;;20.30;;
30307;SDS011;17114;52.314;8.910;2022-09-12T05:28:33;38.85;;;22.65;;
30307;SDS011;17114;52.314;8.910;2022-09-12T05:31:07;37.45;;;21.92;;
30307;SDS011;17114;52.314;8.910;2022-09-12T05:33:34;39.80;;;21.77;;
30307;SDS011;17114;52.314;8.910;2022-09-12T05:36:04;39.13;;;23.08;;
30307;SDS011;17114;52.314;8.910;2022-09-12T05:38:35;42.10;;;23.05;;
30307;SDS011;17114;52.314;8.910;2022-09-12T05:41:06;40.17;;;23.38;;
30307;SDS011;17114;52.314;8.910;2022-09-12T05:43:43;40.50;;;21.95;;
30307;SDS011;17114;52.314;8.910;2022-09-12T05:46:12;38.88;;;22.10;;
30307;SDS011;17114;52.314;8.910;2022-09-12T05:48:41;36.40;;;21.60;;
30307;SDS011;17114;52.314;8.910;2022-09-12T05:51:12;37.17;;;21.13;;
30307;SDS011;17114;52.314;8.910;2022-09-12T05:53:45;39.20;;;22.88;;
30307;SDS011;17114;52.314;8.910;2022-09-12T05:56:16;39.97;;;21.85;;
30307;SDS011;17114;52.314;8.910;2022-09-12T05:58:46;39.50;;;22.58;;
30307;SDS011;17114;52.314;8.910;2022-09-12T06:01:15;37.55;;;21.42;;
30307;SDS011;17114;52.314;8.910;2022-09-12T06:03:43;37.97;;;22.60;;
30307;SDS011;17114;52.314;8.910;2022-09-12T06:06:12;41.13;;;21.20;;
30307;SDS011;17114;52.314;8.910;2022-09-12T06:08:42;36.95;;;22.30;;
30307;SDS011;17114;52.314;8.910;2022-09-12T06:11:14;34.78;;;21.25;;
30307;SDS011;17114;52.314;8.910;2022-09-12T06:13:43;35.72;;;21.23;;
30307;SDS011;17114;52.314;8.910;2022-09-12T06:16:10;36.55;;;20.40;;
30307;SDS011;17114;52.314;8.910;2022-09-12T06:18:39;36.67;;;20.15;;
30307;SDS011;17114;52.314;8.910;2022-09-12T06:21:08;33.40;;;20.70;;
30307;SDS011;17114;52.314;8.910;2022-09-12T06:23:37;36.35;;;21.27;;
30307;SDS011;17114;52.314;8.910;2022-09-12T06:26:06;34.75;;;20.55;;
30307;SDS011;17114;52.314;8.910;2022-09-12T06:28:35;34.70;;;20.17;;
30307;SDS011;17114;52.314;8.910;2022-09-12T06:31:05;33.92;;;20.48;;
30307;SDS011;17114;52.314;8.910;2022-09-12T06:33:41;28.90;;;18.92;;
30307;SDS011;17114;52.314;8.910;2022-09-12T06:36:10;27.05;;;16.95;;
30307;SDS011;17114;52.314;8.910;2022-09-12T06:38:43;28.63;;;17.88;;
30307;SDS011;17114;52.314;8.910;2022-09-12T06:41:14;23.92;;;16.85;;
30307;SDS011;17114;52.314;8.910;2022-09-12T06:43:41;25.02;;;15.57;;
30307;SDS011;17114;52.314;8.910;2022-09-12T06:46:08;25.60;;;15.13;;
30307;SDS011;17114;52.314;8.910;2022-09-12T06:48:36;23.88;;;15.45;;
30307;SDS011;17114;52.314;8.910;2022-09-12T06:51:13;20.83;;;14.65;;
30307;SDS011;17114;52.314;8.910;2022-09-12T06:53:42;22.92;;;14.45;;
30307;SDS011;17114;52.314;8.910;2022-09-12T06:56:12;19.30;;;13.60;;
30307;SDS011;17114;52.314;8.910;2022-09-12T06:58:41;18.92;;;12.07;;
30307;SDS011;17114;52.314;8.910;2022-09-12T07:01:13;17.77;;;12.70;;
30307;SDS011;17114;52.314;8.910;2022-09-12T07:03:41;15.55;;;12.07;;
30307;SDS011;17114;52.314;8.910;2022-09-12T07:06:13;18.90;;;12.18;;
30307;SDS011;17114;52.314;8.910;2022-09-12T07:08:41;17.48;;;12.35;;
30307;SDS011;17114;52.314;8.910;2022-09-12T07:11:12;18.63;;;12.27;;
30307;SDS011;17114;52.314;8.910;2022-09-12T07:13:42;16.45;;;11.27;;
30307;SDS011;17114;52.314;8.910;2022-09-12T07:16:10;19.17;;;10.93;;
30307;SDS011;17114;52.314;8.910;2022-09-12T07:18:48;17.40;;;10.90;;
30307;SDS011;17114;52.314;8.910;2022-09-12T07:21:19;15.43;;;10.70;;
30307;SDS011;17114;52.314;8.910;2022-09-12T07:23:47;15.73;;;10.50;;
30307;SDS011;17114;52.314;8.910;2022-09-12T07:26:14;13.43;;;10.00;;
30307;SDS011;17114;52.314;8.910;2022-09-12T07:28:41;16.95;;;10.15;;
30307;SDS011;17114;52.314;8.910;2022-09-12T07:31:10;16.48;;;9.60;;
30307;SDS011;17114;52.314;8.910;2022-09-12T07:33:39;14.55;;;9.65;;
30307;SDS011;17114;52.314;8.910;2022-09-12T07:36:07;14.27;;;8.98;;
30307;SDS011;17114;52.314;8.910;2022-09-12T07:38:40;12.70;;;8.27;;
30307;SDS011;17114;52.314;8.910;2022-09-12T07:41:20;11.55;;;8.18;;
30307;SDS011;17114;52.314;8.910;2022-09-12T07:43:56;15.00;;;8.45;;
30307;SDS011;17114;52.314;8.910;2022-09-12T07:46:25;15.23;;;8.10;;
30307;SDS011;17114;52.314;8.910;2022-09-12T07:48:54;13.02;;;7.55;;
30307;SDS011;17114;52.314;8.910;2022-09-12T07:51:23;11.75;;;7.30;;
30307;SDS011;17114;52.314;8.910;2022-09-12T07:53:50;9.63;;;6.90;;
30307;SDS011;17114;52.314;8.910;2022-09-12T07:56:18;8.85;;;6.68;;
30307;SDS011;17114;52.314;8.910;2022-09-12T07:58:49;8.90;;;6.82;;
30307;SDS011;17114;52.314;8.910;2022-09-12T08:01:17;8.43;;;6.40;;
30307;SDS011;17114;52.314;8.910;2022-09-12T08:03:46;9.98;;;6.20;;
30307;SDS011;17114;52.314;8.910;2022-09-12T08:06:15;9.52;;;6.55;;
30307;SDS011;17114;52.314;8.910;2022-09-12T08:08:47;8.13;;;5.57;;
30307;SDS011;17114;52.314;8.910;2022-09-12T08:11:15;8.13;;;6.03;;
30307;SDS011;17114;52.314;8.910;2022-09-12T08:13:47;8.00;;;5.63;;
30307;SDS011;17114;52.314;8.910;2022-09-12T08:16:20;7.43;;;5.53;;
30307;SDS011;17114;52.314;8.910;2022-09-12T08:18:52;9.02;;;5.60;;
30307;SDS011;17114;52.314;8.910;2022-09-12T08:21:20;9.52;;;5.32;;
30307;SDS011;17114;52.314;8.910;2022-09-12T08:23:53;7.55;;;4.78;;
30307;SDS011;17114;52.314;8.910;2022-09-12T08:26:22;6.65;;;4.80;;
30307;SDS011;17114;52.314;8.910;2022-09-12T08:28:50;9.07;;;5.13;;
30307;SDS011;17114;52.314;8.910;2022-09-12T08:31:19;8.05;;;4.82;;
30307;SDS011;17114;52.314;8.910;2022-09-12T08:33:47;6.85;;;4.40;;
30307;SDS011;17114;52.314;8.910;2022-09-12T08:36:18;7.97;;;4.90;;
30307;SDS011;17114;52.314;8.910;2022-09-12T08:38:47;8.43;;;5.38;;
30307;SDS011;17114;52.314;8.910;2022-09-12T08:44:17;6.68;;;5.07;;
30307;SDS011;17114;52.314;8.910;2022-09-12T08:49:36;6.93;;;5.03;;
30307;SDS011;17114;52.314;8.910;2022-09-12T08:52:27;7.07;;;5.18;;
30307;SDS011;17114;52.314;8.910;2022-09-12T08:55:01;7.28;;;5.38;;
30307;SDS011;17114;52.314;8.910;2022-09-12T08:57:34;9.05;;;5.32;;
30307;SDS011;17114;52.314;8.910;2022-09-12T09:00:02;8.90;;;5.32;;
30307;SDS011;17114;52.314;8.910;2022-09-12T09:02:39;7.88;;;5.78;;
30307;SDS011;17114;52.314;8.910;2022-09-12T09:05:12;8.13;;;4.68;;
30307;SDS011;17114;52.314;8.910;2022-09-12T09:10:46;8.65;;;5.53;;
30307;SDS011;17114;52.314;8.910;2022-09-12T09:16:29;10.27;;;5.30;;
30307;SDS011;17114;52.314;8.910;2022-09-12T09:19:01;6.78;;;4.80;;
30307;SDS011;17114;52.314;8.910;2022-09-12T09:21:36;6.95;;;5.05;;
30307;SDS011;17114;52.314;8.910;2022-09-12T09:24:10;7.15;;;4.47;;
30307;SDS011;17114;52.314;8.910;2022-09-12T09:26:44;8.05;;;4.97;;
30307;SDS011;17114;52.314;8.910;2022-09-12T09:29:17;7.40;;;5.18;;
30307;SDS011;17114;52.314;8.910;2022-09-12T09:31:47;7.63;;;4.63;;
30307;SDS011;17114;52.314;8.910;2022-09-12T09:34:19;8.40;;;5.25;;
30307;SDS011;17114;52.314;8.910;2022-09-12T09:37:01;10.20;;;5.03;;
30307;SDS011;17114;52.314;8.910;2022-09-12T09:42:45;6.80;;;4.68;;
30307;SDS011;17114;52.314;8.910;2022-09-12T09:45:21;6.05;;;4.18;;
30307;SDS011;17114;52.314;8.910;2022-09-12T09:47:50;6.70;;;4.07;;
30307;SDS011;17114;52.314;8.910;2022-09-12T09:50:23;8.57;;;4.37;;
30307;SDS011;17114;52.314;8.910;2022-09-12T09:52:50;6.38;;;4.40;;
30307;SDS011;17114;52.314;8.910;2022-09-12T09:55:24;6.55;;;4.07;;
30307;SDS011;17114;52.314;8.910;2022-09-12T09:57:56;6.35;;;3.75;;
30307;SDS011;17114;52.314;8.910;2022-09-12T10:00:30;8.18;;;4.55;;
30307;SDS011;17114;52.314;8.910;2022-09-12T10:05:44;6.82;;;3.90;;
30307;SDS011;17114;52.314;8.910;2022-09-12T10:10:52;5.75;;;4.03;;
30307;SDS011;17114;52.314;8.910;2022-09-12T10:13:29;7.97;;;4.22;;
30307;SDS011;17114;52.314;8.910;2022-09-12T10:16:03;6.80;;;4.18;;
30307;SDS011;17114;52.314;8.910;2022-09-12T10:18:38;8.73;;;4.70;;
30307;SDS011;17114;52.314;8.910;2022-09-12T10:26:37;5.82;;;4.13;;
30307;SDS011;17114;52.314;8.910;2022-09-12T10:29:09;6.57;;;4.10;;
30307;SDS011;17114;52.314;8.910;2022-09-12T10:32:22;7.95;;;4.00;;
30307;SDS011;17114;52.314;8.910;2022-09-12T10:37:06;4.95;;;3.45;;
30307;SDS011;17114;52.314;8.910;2022-09-12T10:39:35;5.40;;;3.97;;
30307;SDS011;17114;52.314;8.910;2022-09-12T10:42:04;6.32;;;3.92;;
30307;SDS011;17114;52.314;8.910;2022-09-12T10:44:32;6.22;;;4.03;;
30307;SDS011;17114;52.314;8.910;2022-09-12T10:47:17;7.18;;;3.63;;
30307;SDS011;17114;52.314;8.910;2022-09-12T10:49:46;5.18;;;3.60;;
30307;SDS011;17114;52.314;8.910;2022-09-12T10:52:19;7.13;;;3.90;;
30307;SDS011;17114;52.314;8.910;2022-09-12T10:57:20;7.43;;;4.05;;
30307;SDS011;17114;52.314;8.910;2022-09-12T11:00:03;7.80;;;3.92;;
30307;SDS011;17114;52.314;8.910;2022-09-12T11:30:56;5.30;;;3.90;;
30307;SDS011;17114;52.314;8.910;2022-09-12T11:35:59;6.38;;;3.20;;
30307;SDS011;17114;52.314;8.910;2022-09-12T11:41:17;5.40;;;4.10;;
30307;SDS011;17114;52.314;8.910;2022-09-12T11:44:01;5.60;;;3.45;;
30307;SDS011;17114;52.314;8.910;2022-09-12T11:46:35;8.98;;;3.72;;
30307;SDS011;17114;52.314;8.910;2022-09-12T11:51:55;4.10;;;3.15;;
30307;SDS011;17114;52.314;8.910;2022-09-12T12:00:06;4.63;;;2.80;;
30307;SDS011;17114;52.314;8.910;2022-09-12T12:05:30;4.05;;;3.00;;
30307;SDS011;17114;52.314;8.910;2022-09-12T12:08:22;5.65;;;3.15;;
30307;SDS011;17114;52.314;8.910;2022-09-12T12:10:55;3.60;;;2.42;;
30307;SDS011;17114;52.314;8.910;2022-09-12T12:16:00;3.70;;;2.75;;
30307;SDS011;17114;52.314;8.910;2022-09-12T12:18:38;3.47;;;2.50;;
30307;SDS011;17114;52.314;8.910;2022-09-12T12:34:32;3.25;;;2.60;;
30307;SDS011;17114;52.314;8.910;2022-09-12T12:55:18;4.47;;;2.97;;
30307;SDS011;17114;52.314;8.910;2022-09-12T12:58:07;6.00;;;2.67;;
30307;SDS011;17114;52.314;8.910;2022-09-12T13:03:31;5.07;;;3.55;;
30307;SDS011;17114;52.314;8.910;2022-09-12T13:06:00;6.45;;;3.05;;
30307;SDS011;17114;52.314;8.910;2022-09-12T13:08:37;4.38;;;3.03;;
30307;SDS011;17114;52.314;8.910;2022-09-12T13:11:16;8.18;;;3.17;;
30307;SDS011;17114;52.314;8.910;2022-09-12T13:14:04;4.85;;;2.83;;
30307;SDS011;17114;52.314;8.910;2022-09-12T13:16:53;7.85;;;3.58;;
30307;SDS011;17114;52.314;8.910;2022-09-12T13:19:30;5.15;;;3.20;;
30307;SDS011;17114;52.314;8.910;2022-09-12T13:22:00;4.57;;;3.60;;
30307;SDS011;17114;52.314;8.910;2022-09-12T13:24:27;4.30;;;3.47;;
30307;SDS011;17114;52.314;8.910;2022-09-12T13:26:54;5.40;;;3.28;;
30307;SDS011;17114;52.314;8.910;2022-09-12T13:29:23;7.85;;;3.60;;
30307;SDS011;17114;52.314;8.910;2022-09-12T13:31:55;3.85;;;3.00;;
30307;SDS011;17114;52.314;8.910;2022-09-12T13:40:23;4.60;;;2.80;;
30307;SDS011;17114;52.314;8.910;2022-09-12T13:42:52;4.57;;;3.10;;
30307;SDS011;17114;52.314;8.910;2022-09-12T13:45:32;3.67;;;3.05;;
30307;SDS011;17114;52.314;8.910;2022-09-12T13:48:02;4.05;;;2.80;;
30307;SDS011;17114;52.314;8.910;2022-09-12T13:53:42;3.97;;;3.00;;
30307;SDS011;17114;52.314;8.910;2022-09-12T13:56:18;5.55;;;3.33;;
30307;SDS011;17114;52.314;8.910;2022-09-12T13:58:53;5.30;;;3.70;;
30307;SDS011;17114;52.314;8.910;2022-09-12T14:01:23;4.50;;;3.15;;
30307;SDS011;17114;52.314;8.910;2022-09-12T14:04:06;5.00;;;3.17;;
30307;SDS011;17114;52.314;8.910;2022-09-12T14:07:15;5.82;;;3.25;;
30307;SDS011;17114;52.314;8.910;2022-09-12T14:09:52;5.32;;;3.22;;
30307;SDS011;17114;52.314;8.910;2022-09-12T14:12:25;4.90;;;3.40;;
30307;SDS011;17114;52.314;8.910;2022-09-12T14:15:04;7.18;;;3.42;;
30307;SDS011;17114;52.314;8.910;2022-09-12T14:17:35;5.32;;;3.53;;
30307;SDS011;17114;52.314;8.910;2022-09-12T14:20:06;4.88;;;3.45;;
30307;SDS011;17114;52.314;8.910;2022-09-12T14:22:37;6.53;;;3.55;;
30307;SDS011;17114;52.314;8.910;2022-09-12T14:25:06;5.90;;;3.17;;
30307;SDS011;17114;52.314;8.910;2022-09-12T14:27:42;5.57;;;3.63;;
30307;SDS011;17114;52.314;8.910;2022-09-12T14:30:28;5.18;;;3.60;;
30307;SDS011;17114;52.314;8.910;2022-09-12T14:35:36;4.75;;;3.40;;
30307;SDS011;17114;52.314;8.910;2022-09-12T14:38:14;6.90;;;3.72;;
30307;SDS011;17114;52.314;8.910;2022-09-12T14:40:51;5.43;;;3.25;;
30307;SDS011;17114;52.314;8.910;2022-09-12T14:43:27;3.92;;;3.25;;
30307;SDS011;17114;52.314;8.910;2022-09-12T14:45:55;5.00;;;3.53;;
30307;SDS011;17114;52.314;8.910;2022-09-12T14:48:28;4.82;;;3.40;;
30307;SDS011;17114;52.314;8.910;2022-09-12T14:50:58;3.83;;;3.08;;
30307;SDS011;17114;52.314;8.910;2022-09-12T14:56:04;5.85;;;3.50;;
30307;SDS011;17114;52.314;8.910;2022-09-12T14:58:36;5.03;;;3.67;;
30307;SDS011;17114;52.314;8.910;2022-09-12T15:03:32;5.65;;;3.30;;
30307;SDS011;17114;52.314;8.910;2022-09-12T15:06:01;5.47;;;3.53;;
30307;SDS011;17114;52.314;8.910;2022-09-12T15:08:30;5.85;;;3.20;;
30307;SDS011;17114;52.314;8.910;2022-09-12T15:10:57;5.65;;;3.55;;
30307;SDS011;17114;52.314;8.910;2022-09-12T15:13:26;4.63;;;3.17;;
30307;SDS011;17114;52.314;8.910;2022-09-12T15:15:55;3.55;;;3.10;;
30307;SDS011;17114;52.314;8.910;2022-09-12T15:18:24;3.80;;;3.25;;
30307;SDS011;17114;52.314;8.910;2022-09-12T15:20:57;7.43;;;3.85;;
30307;SDS011;17114;52.314;8.910;2022-09-12T15:23:44;4.50;;;3.35;;
30307;SDS011;17114;52.314;8.910;2022-09-12T15:26:14;6.47;;;3.78;;
30307;SDS011;17114;52.314;8.910;2022-09-12T15:28:43;7.78;;;3.50;;
30307;SDS011;17114;52.314;8.910;2022-09-12T15:31:27;4.93;;;3.20;;
30307;SDS011;17114;52.314;8.910;2022-09-12T15:33:56;6.63;;;3.83;;
30307;SDS011;17114;52.314;8.910;2022-09-12T15:36:24;6.10;;;3.42;;
30307;SDS011;17114;52.314;8.910;2022-09-12T15:38:51;4.88;;;3.65;;
30307;SDS011;17114;52.314;8.910;2022-09-12T15:43:51;6.18;;;3.80;;
30307;SDS011;17114;52.314;8.910;2022-09-12T15:46:18;4.47;;;3.25;;
30307;SDS011;17114;52.314;8.910;2022-09-12T15:48:45;4.30;;;3.03;;
30307;SDS011;17114;52.314;8.910;2022-09-12T15:51:13;7.05;;;3.92;;
30307;SDS011;17114;52.314;8.910;2022-09-12T15:53:41;5.47;;;3.55;;
30307;SDS011;17114;52.314;8.910;2022-09-12T15:56:09;6.10;;;3.53;;
30307;SDS011;17114;52.314;8.910;2022-09-12T15:58:37;7.78;;;3.63;;
30307;SDS011;17114;52.314;8.910;2022-09-12T16:03:49;5.32;;;3.25;;
30307;SDS011;17114;52.314;8.910;2022-09-12T16:06:16;5.78;;;3.97;;
30307;SDS011;17114;52.314;8.910;2022-09-12T16:08:43;5.15;;;3.13;;
30307;SDS011;17114;52.314;8.910;2022-09-12T16:11:11;6.10;;;3.20;;
30307;SDS011;17114;52.314;8.910;2022-09-12T16:13:43;5.80;;;3.70;;
30307;SDS011;17114;52.314;8.910;2022-09-12T16:16:10;4.88;;;3.30;;
30307;SDS011;17114;52.314;8.910;2022-09-12T16:18:38;4.85;;;3.55;;
30307;SDS011;17114;52.314;8.910;2022-09-12T16:21:05;8.25;;;3.53;;
30307;SDS011;17114;52.314;8.910;2022-09-12T16:23:40;4.75;;;3.15;;
30307;SDS011;17114;52.314;8.910;2022-09-12T16:26:08;4.20;;;3.38;;
30307;SDS011;17114;52.314;8.910;2022-09-12T16:28:36;5.18;;;3.53;;
30307;SDS011;17114;52.314;8.910;2022-09-12T16:31:04;6.95;;;3.53;;
30307;SDS011;17114;52.314;8.910;2022-09-12T16:33:32;4.25;;;3.25;;
30307;SDS011;17114;52.314;8.910;2022-09-12T16:36:04;4.00;;;3.40;;
30307;SDS011;17114;52.314;8.910;2022-09-12T16:38:31;5.50;;;3.55;;
30307;SDS011;17114;52.314;8.910;2022-09-12T16:41:03;4.53;;;3.35;;
30307;SDS011;17114;52.314;8.910;2022-09-12T16:43:32;6.72;;;3.45;;
30307;SDS011;17114;52.314;8.910;2022-09-12T16:46:01;6.13;;;3.75;;
30307;SDS011;17114;52.314;8.910;2022-09-12T16:48:30;6.53;;;3.50;;
30307;SDS011;17114;52.314;8.910;2022-09-12T16:51:00;4.47;;;3.22;;
30307;SDS011;17114;52.314;8.910;2022-09-12T16:53:29;6.85;;;3.63;;
30307;SDS011;17114;52.314;8.910;2022-09-12T16:55:56;6.47;;;3.78;;
30307;SDS011;17114;52.314;8.910;2022-09-12T16:58:24;5.78;;;3.13;;
30307;SDS011;17114;52.314;8.910;2022-09-12T17:01:00;5.85;;;3.58;;
30307;SDS011;17114;52.314;8.910;2022-09-12T17:03:32;3.20;;;2.88;;
30307;SDS011;17114;52.314;8.910;2022-09-12T17:06:03;6.60;;;2.95;;
30307;SDS011;17114;52.314;8.910;2022-09-12T17:08:33;5.57;;;3.40;;
30307;SDS011;17114;52.314;8.910;2022-09-12T17:11:02;5.93;;;2.97;;
30307;SDS011;17114;52.314;8.910;2022-09-12T17:13:32;6.65;;;3.40;;
30307;SDS011;17114;52.314;8.910;2022-09-12T17:16:19;12.65;;;3.45;;
30307;SDS011;17114;52.314;8.910;2022-09-12T17:18:47;4.80;;;3.22;;
30307;SDS011;17114;52.314;8.910;2022-09-12T17:21:14;8.43;;;3.28;;
30307;SDS011;17114;52.314;8.910;2022-09-12T17:23:41;5.53;;;3.10;;
30307;SDS011;17114;52.314;8.910;2022-09-12T17:26:09;5.63;;;2.97;;
30307;SDS011;17114;52.314;8.910;2022-09-12T17:28:37;4.38;;;3.20;;
30307;SDS011;17114;52.314;8.910;2022-09-12T17:31:05;5.43;;;2.90;;
30307;SDS011;17114;52.314;8.910;2022-09-12T17:33:35;4.55;;;3.25;;
30307;SDS011;17114;52.314;8.910;2022-09-12T17:36:03;4.40;;;3.08;;
30307;SDS011;17114;52.314;8.910;2022-09-12T17:38:37;4.35;;;2.90;;
30307;SDS011;17114;52.314;8.910;2022-09-12T17:41:08;8.32;;;2.83;;
30307;SDS011;17114;52.314;8.910;2022-09-12T17:43:47;6.50;;;3.00;;
30307;SDS011;17114;52.314;8.910;2022-09-12T17:46:16;4.57;;;3.17;;
30307;SDS011;17114;52.314;8.910;2022-09-12T17:48:53;6.13;;;3.83;;
30307;SDS011;17114;52.314;8.910;2022-09-12T17:51:22;6.78;;;3.40;;
30307;SDS011;17114;52.314;8.910;2022-09-12T17:54:00;4.93;;;3.13;;
30307;SDS011;17114;52.314;8.910;2022-09-12T17:56:30;9.27;;;4.30;;
30307;SDS011;17114;52.314;8.910;2022-09-12T17:58:59;7.82;;;3.40;;
30307;SDS011;17114;52.314;8.910;2022-09-12T18:01:26;5.20;;;3.58;;